Time;durP1;ratioP1;P1;durP2;ratioP2;P2;SDS_P1;SDS_P2;PMS_P1;PMS_P2;Temp;Humidity;BMP_temperature;BMP_pressure;BME280_temperature;BME280_humidity;BME280_pressure;Samples;Min_cycle;Max_cycle;Signal;HPM_P1;HPM_P2
2023/06/28 00:01:45;;;;;;;4.60;4.50;;;;;;;-141.02;100.00;106717.56;5132920;28;20230;-58
2023/06/28 00:04:12;;;;;;;4.72;4.63;;;;;;;-141.02;100.00;106717.56;5132748;28;20581;-57
2023/06/28 00:06:41;;;;;;;4.65;4.55;;;;;;;-141.02;100.00;106967.91;5132754;28;20220;-58
2023/06/28 00:09:08;;;;;;;4.80;4.70;;;;;;;-141.02;100.00;107218.31;5132697;28;20228;-57
2023/06/28 00:11:34;;;;;;;4.80;4.70;;;;;;;-141.02;100.00;106967.91;5132993;28;20196;-57
2023/06/28 00:14:01;;;;;;;5.13;5.03;;;;;;;-141.02;100.00;106967.91;5132916;28;20200;-62
2023/06/28 00:16:28;;;;;;;5.40;5.30;;;;;;;-141.02;100.00;106967.91;5132989;28;20231;-57
2023/06/28 00:19:00;;;;;;;5.25;5.15;;;;;;;-141.02;100.00;106967.91;5132907;28;20188;-58
2023/06/28 00:21:27;;;;;;;5.50;5.40;;;;;;;-141.02;100.00;106967.91;5132581;27;20223;-57
2023/06/28 00:23:55;;;;;;;5.32;5.22;;;;;;;-141.02;100.00;106967.91;5132603;28;20193;-57
2023/06/28 00:26:22;;;;;;;5.47;5.38;;;;;;;-141.02;100.00;106967.91;5132753;28;20192;-57
2023/06/28 00:28:49;;;;;;;5.32;5.22;;;;;;;-141.02;100.00;106967.91;5133687;27;20291;-57
2023/06/28 00:31:31;;;;;;;5.10;5.00;;;;;;;-141.02;100.00;106967.91;5136364;27;20196;-57
2023/06/28 00:33:58;;;;;;;5.10;5.00;;;;;;;-141.02;100.00;106967.91;5136716;27;20200;-57
2023/06/28 00:36:25;;;;;;;4.70;4.60;;;;;;;-141.02;100.00;107218.31;5136653;27;20231;-57
2023/06/28 00:38:52;;;;;;;5.00;4.90;;;;;;;-141.02;100.00;107218.31;5136264;27;20196;-59
2023/06/28 00:41:31;;;;;;;4.18;4.07;;;;;;;-141.02;100.00;107468.69;5126359;27;20229;-58
2023/06/28 00:44:42;;;;;;;4.22;4.13;;;;;;;-141.02;100.00;107719.09;5095322;28;20277;-58
2023/06/28 00:47:29;;;;;;;4.00;3.90;;;;;;;-141.02;100.00;107719.09;5095192;28;20677;-57
2023/06/28 00:50:16;;;;;;;3.90;3.80;;;;;;;-141.02;100.00;107969.53;5095189;28;20190;-57
2023/06/28 00:53:07;;;;;;;3.90;3.80;;;;;;;-141.02;100.00;107969.53;5095074;28;20233;-58
2023/06/28 00:56:03;;;;;;;3.92;3.83;;;;;;;-141.02;100.00;107971.50;5095074;28;20605;-58
2023/06/28 00:59:06;;;;;;;3.60;3.50;;;;;;;-141.02;100.00;107971.50;5095023;28;20206;-57
2023/06/28 01:01:34;;;;;;;3.50;3.40;;;;;;;-141.02;100.00;107971.50;5095208;28;20312;-57
2023/06/28 01:04:04;;;;;;;3.58;3.47;;;;;;;-141.02;100.00;107971.50;5094866;28;20194;-57
2023/06/28 01:06:35;;;;;;;3.20;3.20;;;;;;;-141.02;100.00;107971.50;5095014;28;20249;-58
2023/06/28 01:09:02;;;;;;;3.10;3.10;;;;;;;-141.02;100.00;107971.50;5095195;28;20196;-63
2023/06/28 01:11:29;;;;;;;3.00;3.00;;;;;;;-141.02;100.00;107971.50;5094929;28;20231;-57
2023/06/28 01:13:57;;;;;;;2.90;2.90;;;;;;;-141.02;100.00;107971.50;5094897;28;20190;-57
2023/06/28 01:16:25;;;;;;;3.17;3.17;;;;;;;-141.02;100.00;107971.50;5094958;28;20208;-57
2023/06/28 01:18:53;;;;;;;3.00;3.00;;;;;;;-141.02;100.00;107971.50;5094610;28;20202;-57
2023/06/28 01:21:23;;;;;;;3.20;3.20;;;;;;;-141.02;100.00;107971.50;5094795;28;20229;-56
2023/06/28 01:23:52;;;;;;;3.30;3.30;;;;;;;-141.02;100.00;107971.50;5095212;28;20190;-57
2023/06/28 01:26:19;;;;;;;3.50;3.40;;;;;;;-141.02;100.00;107971.50;5094723;28;20277;-58
2023/06/28 01:28:47;;;;;;;3.30;3.30;;;;;;;-141.02;100.00;107971.50;5094679;28;20277;-57
2023/06/28 01:31:14;;;;;;;3.30;3.30;;;;;;;-141.02;100.00;107971.50;5094659;28;20220;-57
2023/06/28 01:33:42;;;;;;;3.50;3.40;;;;;;;-141.02;100.00;107971.50;5094395;28;20656;-57
2023/06/28 01:36:10;;;;;;;3.70;3.60;;;;;;;-141.02;100.00;107971.50;5094572;28;20205;-57
2023/06/28 01:38:39;;;;;;;3.80;3.70;;;;;;;-141.02;100.00;107971.50;5094522;28;20226;-57
2023/06/28 01:41:09;;;;;;;4.20;4.10;;;;;;;-141.02;100.00;107971.50;5093663;28;20235;-57
2023/06/28 01:43:36;;;;;;;3.90;3.80;;;;;;;-141.02;100.00;107971.50;5129794;27;20266;-57
2023/06/28 01:46:04;;;;;;;3.90;3.80;;;;;;;-141.02;100.00;107971.50;5134979;27;20234;-57
2023/06/28 01:48:31;;;;;;;4.22;4.13;;;;;;;-141.02;100.00;107971.50;5135130;27;20198;-57
2023/06/28 01:50:58;;;;;;;4.60;4.50;;;;;;;-141.02;100.00;107971.50;5135191;27;20279;-57
2023/06/28 01:53:25;;;;;;;4.20;4.10;;;;;;;-141.02;100.00;107971.50;5135407;27;20192;-56
2023/06/28 01:55:52;;;;;;;4.50;4.40;;;;;;;-141.02;100.00;107971.50;5135055;27;20235;-57
2023/06/28 01:58:21;;;;;;;4.50;4.40;;;;;;;-141.02;100.00;107971.50;5135065;27;20207;-57
2023/06/28 02:00:48;;;;;;;4.50;4.40;;;;;;;-141.02;100.00;107971.50;5134934;27;20227;-57
2023/06/28 02:03:16;;;;;;;4.50;4.40;;;;;;;-141.02;100.00;107971.50;5134993;27;20196;-57
2023/06/28 02:05:43;;;;;;;4.80;4.70;;;;;;;-141.02;100.00;107971.50;5134894;27;20280;-57
2023/06/28 02:08:10;;;;;;;5.25;5.15;;;;;;;-141.02;100.00;107971.50;5134541;27;20650;-57
2023/06/28 02:10:37;;;;;;;6.10;6.00;;;;;;;-141.02;100.00;107969.53;5134832;27;20192;-56
2023/06/28 02:13:04;;;;;;;6.80;6.60;;;;;;;-141.02;100.00;107969.53;5134390;27;20231;-57
2023/06/28 02:15:32;;;;;;;7.70;7.50;;;;;;;-141.02;100.00;107468.69;5134430;27;20196;-57
2023/06/28 02:17:59;;;;;;;8.40;8.20;;;;;;;-141.02;100.00;106967.91;5134573;27;20192;-57
2023/06/28 02:20:26;;;;;;;8.55;8.35;;;;;;;-141.02;100.00;106717.56;5134290;27;20189;-57
2023/06/28 02:22:53;;;;;;;9.00;8.70;;;;;;;-141.02;100.00;106467.22;5134564;27;20199;-56
2023/06/28 02:25:20;;;;;;;8.82;8.63;;;;;;;-141.02;100.00;106216.91;5134425;27;20188;-56
2023/06/28 02:27:48;;;;;;;9.30;9.00;;;;;;;-141.02;100.00;106216.91;5134130;27;20655;-56
2023/06/28 02:30:15;;;;;;;9.80;9.50;;;;;;;-141.02;100.00;105966.59;5134296;27;20198;-56
2023/06/28 02:32:43;;;;;;;9.90;9.60;;;;;;;-141.02;100.00;105716.31;5134359;27;20297;-57
2023/06/28 02:35:10;;;;;;;9.68;9.38;;;;;;;-141.02;100.00;105716.31;5134301;27;20195;-56
2023/06/28 02:37:37;;;;;;;9.30;9.00;;;;;;;-141.02;100.00;105716.31;5133863;27;20676;-68
2023/06/28 02:40:05;;;;;;;9.20;8.90;;;;;;;-141.02;100.00;105716.31;5133978;27;20193;-56
2023/06/28 02:42:32;;;;;;;9.05;8.77;;;;;;;-141.02;100.00;105966.59;5133622;27;20236;-57
2023/06/28 02:44:59;;;;;;;8.60;8.40;;;;;;;-141.02;100.00;106216.91;5134180;27;20223;-56
2023/06/28 02:47:26;;;;;;;8.40;8.20;;;;;;;-141.02;100.00;106467.22;5134049;27;20596;-57
2023/06/28 02:49:54;;;;;;;8.55;8.35;;;;;;;-141.02;100.00;106717.56;5134001;27;20188;-56
2023/06/28 02:52:21;;;;;;;8.10;7.90;;;;;;;-141.02;100.00;106967.91;5133321;27;20196;-56
2023/06/28 02:54:48;;;;;;;8.00;7.80;;;;;;;-141.02;100.00;107218.31;5133995;27;20212;-57
2023/06/28 02:57:15;;;;;;;7.57;7.38;;;;;;;-141.02;100.00;107218.31;5133954;27;20196;-56
2023/06/28 02:59:42;;;;;;;7.40;7.20;;;;;;;-141.02;100.00;107468.69;5133751;27;20236;-57
2023/06/28 03:02:11;;;;;;;7.07;6.88;;;;;;;-141.02;100.00;107719.09;5133768;27;20227;-57
2023/06/28 03:04:39;;;;;;;7.38;7.18;;;;;;;-141.02;100.00;107719.09;5133860;27;20194;-56
2023/06/28 03:07:13;;;;;;;7.20;7.00;;;;;;;-141.02;100.00;107969.53;5133810;27;20275;-56
2023/06/28 03:09:41;;;;;;;7.40;7.20;;;;;;;-141.02;100.00;107969.53;5133452;27;20216;-57
2023/06/28 03:12:09;;;;;;;6.88;6.68;;;;;;;-141.02;100.00;107969.53;5133539;27;20253;-57
2023/06/28 03:14:36;;;;;;;7.20;7.00;;;;;;;-141.02;100.00;107971.50;5133716;27;20200;-56
2023/06/28 03:17:04;;;;;;;6.60;6.40;;;;;;;-141.02;100.00;107971.50;5133604;27;20196;-57
2023/06/28 03:19:31;;;;;;;6.63;6.43;;;;;;;-141.02;100.00;107971.50;5133239;27;20228;-57
2023/06/28 03:21:58;;;;;;;6.30;6.20;;;;;;;-141.02;100.00;107971.50;5133471;27;20259;-57
2023/06/28 03:24:26;;;;;;;7.45;7.25;;;;;;;-141.02;100.00;107971.50;5133846;27;20234;-56
2023/06/28 03:26:53;;;;;;;6.50;6.30;;;;;;;-141.02;100.00;107971.50;5133196;27;20556;-56
2023/06/28 03:29:20;;;;;;;6.13;6.03;;;;;;;-141.02;100.00;107971.50;5133382;27;20279;-61
2023/06/28 03:38:34;;;;;;;8.05;7.85;;;;;;;-141.02;100.00;107971.50;5133722;27;20221;-56
2023/06/28 03:41:03;;;;;;;9.57;9.27;;;;;;;-141.02;100.00;107969.53;5132903;27;20662;-57
2023/06/28 03:43:30;;;;;;;10.40;10.10;;;;;;;-141.02;100.00;107719.09;5133102;27;20228;-57
2023/06/28 03:45:57;;;;;;;11.45;11.05;;;;;;;-141.02;100.00;107468.69;5133012;28;20193;-57
2023/06/28 03:48:24;;;;;;;12.80;12.30;;;;;;;-141.02;100.00;106967.91;5133239;28;20224;-58
2023/06/28 03:50:51;;;;;;;12.82;12.32;;;;;;;-141.02;100.00;106467.22;5132852;28;20659;-57
2023/06/28 03:53:18;;;;;;;13.52;13.02;;;;;;;-141.02;100.00;106216.91;5133160;28;20257;-56
2023/06/28 03:55:45;;;;;;;13.00;12.50;;;;;;;-141.02;100.00;105966.59;5132756;28;20596;-57
2023/06/28 03:58:13;;;;;;;13.15;12.65;;;;;;;-141.02;100.00;105966.59;5133185;28;20316;-56
2023/06/28 04:00:41;;;;;;;13.40;12.90;;;;;;;-141.02;100.00;105716.31;5132770;28;20279;-57
2023/06/28 04:03:08;;;;;;;13.75;13.15;;;;;;;-141.02;100.00;105716.31;5134176;27;20596;-57
2023/06/28 04:05:35;;;;;;;13.82;13.23;;;;;;;-141.02;100.00;105215.78;5137016;27;20196;-57
2023/06/28 04:08:03;;;;;;;13.88;13.27;;;;;;;-141.02;100.00;104965.56;5137195;27;20202;-70
2023/06/28 04:10:30;;;;;;;14.43;13.73;;;;;;;-141.02;100.00;104965.56;5136900;27;20245;-57
2023/06/28 04:12:57;;;;;;;14.48;13.77;;;;;;;-141.02;100.00;104715.34;5137129;27;20189;-57
2023/06/28 04:15:25;;;;;;;15.30;14.50;;;;;;;-141.02;100.00;104214.97;5136743;27;20283;-57
2023/06/28 04:17:52;;;;;;;15.50;14.70;;;;;;;-141.02;100.00;103714.66;5137085;27;20227;-57
2023/06/28 04:20:19;;;;;;;15.82;14.93;;;;;;;-141.02;100.00;103214.44;5136620;27;20196;-62
2023/06/28 04:22:46;;;;;;;16.70;15.70;;;;;;;-141.02;100.00;102964.34;5136839;27;20227;-57
2023/06/28 04:25:13;;;;;;;16.85;15.85;;;;;;;-141.02;100.00;102214.16;5136490;27;20207;-58
2023/06/28 04:27:40;;;;;;;17.15;16.08;;;;;;;-141.02;100.00;101714.16;5136610;27;20199;-57
2023/06/28 04:30:08;;;;;;;16.70;15.60;;;;;;;-141.02;100.00;101464.19;5136783;27;20272;-57
2023/06/28 04:32:36;;;;;;;16.98;15.88;;;;;;;-141.02;100.00;100964.25;5136950;27;20197;-57
2023/06/28 04:35:04;;;;;;;17.35;16.10;;;;;;;-141.02;100.00;100464.44;5136461;27;20232;-57
2023/06/28 04:37:31;;;;;;;16.30;15.30;;;;;;;-141.02;100.00;100714.34;5136387;27;20288;-57
2023/06/28 04:39:59;;;;;;;16.02;15.02;;;;;;;-141.02;100.00;100964.25;5136666;27;20189;-57
2023/06/28 04:42:32;;;;;;;16.80;15.90;;;;;;;-141.02;100.00;100714.34;5136388;27;20236;-57
2023/06/28 04:44:59;;;;;;;14.95;14.15;;;;;;;-141.02;100.00;101714.16;5136571;27;20200;-57
2023/06/28 04:47:27;;;;;;;14.30;13.60;;;;;;;-141.02;100.00;102214.16;5136428;27;20197;-58
2023/06/28 04:49:56;;;;;;;15.02;14.13;;;;;;;-141.02;100.00;102214.16;5136448;27;20205;-57
2023/06/28 04:52:23;;;;;;;15.82;14.82;;;;;;;-141.02;100.00;101464.19;5136715;27;20196;-57
2023/06/28 04:54:50;;;;;;;15.70;14.77;;;;;;;-141.02;100.00;101464.19;5136374;27;20197;-57
2023/06/28 04:57:20;;;;;;;16.65;15.65;;;;;;;-141.02;100.00;99964.66;5136305;27;20300;-58
2023/06/28 04:59:47;;;;;;;15.85;14.95;;;;;;;-141.02;100.00;100714.34;5135884;27;20621;-57
2023/06/28 05:02:14;;;;;;;14.98;14.18;;;;;;;-141.02;100.00;101964.16;5135851;27;20319;-57
2023/06/28 05:04:42;;;;;;;14.60;13.90;;;;;;;-141.02;100.00;102464.22;5135812;27;20192;-57
2023/06/28 05:07:11;;;;;;;14.30;13.60;;;;;;;-141.02;100.00;102964.34;5136173;27;20227;-58
2023/06/28 05:09:38;;;;;;;14.13;13.43;;;;;;;-141.02;100.00;103464.53;5135716;27;20228;-63
2023/06/28 05:12:06;;;;;;;14.20;13.50;;;;;;;-141.02;100.00;103714.66;5135970;27;20193;-57
2023/06/28 05:14:33;;;;;;;14.45;13.75;;;;;;;-141.02;100.00;103964.81;5135145;27;20194;-57
2023/06/28 05:17:00;;;;;;;14.57;13.88;;;;;;;-141.02;100.00;103714.66;5135896;27;20228;-57
2023/06/28 05:19:27;;;;;;;14.82;14.02;;;;;;;-141.02;100.00;103214.44;5135911;27;20192;-57
2023/06/28 05:21:54;;;;;;;15.25;14.45;;;;;;;-141.02;100.00;102714.25;5135562;27;20323;-58
2023/06/28 05:24:23;;;;;;;15.30;14.50;;;;;;;-141.02;100.00;102714.25;5135763;27;20197;-57
2023/06/28 05:26:50;;;;;;;15.73;14.82;;;;;;;-141.02;100.00;102464.22;5135774;27;20624;-57
2023/06/28 05:29:19;;;;;;;17.73;16.63;;;;;;;-141.02;100.00;102964.34;5135309;27;20692;-58
2023/06/28 05:31:46;;;;;;;16.88;15.77;;;;;;;-141.02;100.00;101714.16;5135405;27;20204;-59
2023/06/28 05:34:13;;;;;;;16.25;15.25;;;;;;;-141.02;100.00;101464.19;5135210;27;20199;-58
2023/06/28 05:36:41;;;;;;;15.57;14.68;;;;;;;-141.02;100.00;102714.25;5135583;27;20234;-57
2023/06/28 05:39:08;;;;;;;15.70;14.80;;;;;;;-141.02;100.00;102464.22;5135214;27;20203;-57
2023/06/28 05:41:36;;;;;;;15.68;14.77;;;;;;;-141.02;100.00;101964.16;5135073;27;20206;-57
2023/06/28 05:44:03;;;;;;;15.70;14.80;;;;;;;-141.02;100.00;101714.16;5135426;27;20267;-57
2023/06/28 05:46:30;;;;;;;15.50;14.60;;;;;;;-141.02;100.00;102464.22;5135541;27;20197;-57
2023/06/28 05:48:58;;;;;;;14.95;14.15;;;;;;;-141.02;100.00;102214.16;5134974;27;20228;-57
2023/06/28 05:51:25;;;;;;;14.90;14.10;;;;;;;-141.02;100.00;102214.16;5134932;27;20565;-57
2023/06/28 05:53:52;;;;;;;14.50;13.80;;;;;;;-141.02;100.00;102214.16;5135210;27;20192;-57
2023/06/28 05:56:20;;;;;;;14.40;13.70;;;;;;;-141.02;100.00;102964.34;5135119;27;20197;-58
2023/06/28 05:58:48;;;;;;;15.30;14.50;;;;;;;-141.02;100.00;102964.34;5135089;27;20601;-57
2023/06/28 06:01:15;;;;;;;16.33;15.32;;;;;;;-141.02;100.00;102714.25;5135066;27;20196;-57
2023/06/28 06:03:42;;;;;;;16.55;15.55;;;;;;;-141.02;100.00;101964.16;5134825;27;20226;-57
2023/06/28 06:06:09;;;;;;;16.58;15.57;;;;;;;-141.02;100.00;101464.19;5135231;27;20192;-57
2023/06/28 06:08:36;;;;;;;16.70;15.70;;;;;;;-141.02;100.00;101464.19;5134650;27;20188;-57
2023/06/28 06:11:04;;;;;;;16.17;15.18;;;;;;;-141.02;100.00;102214.16;5134520;27;20236;-57
2023/06/28 06:13:31;;;;;;;16.33;15.32;;;;;;;-141.02;100.00;102464.22;5134533;27;20201;-57
2023/06/28 06:16:00;;;;;;;16.88;15.85;;;;;;;-141.02;100.00;102464.22;5134727;27;20288;-57
2023/06/28 06:18:27;;;;;;;16.85;15.75;;;;;;;-141.02;100.00;101214.22;5134712;27;20275;-57
2023/06/28 06:20:54;;;;;;;16.48;15.38;;;;;;;-141.02;100.00;100714.34;5134636;27;20257;-58
2023/06/28 06:23:21;;;;;;;16.48;15.43;;;;;;;-141.02;100.00;101714.16;5134247;27;20599;-57
2023/06/28 06:25:48;;;;;;;16.50;15.50;;;;;;;-141.02;100.00;101714.16;5134318;27;20279;-57
2023/06/28 06:28:14;;;;;;;16.85;15.75;;;;;;;-141.02;100.00;100714.34;5134472;27;20196;-57
2023/06/28 06:30:41;;;;;;;17.17;15.98;;;;;;;-141.02;100.00;99464.97;5134577;27;20275;-63
2023/06/28 06:33:10;;;;;;;16.77;15.68;;;;;;;-141.02;100.00;100214.53;5134314;27;20650;-57
2023/06/28 06:35:37;;;;;;;17.15;15.95;;;;;;;-141.02;100.00;100214.53;5134040;27;20279;-57
2023/06/28 06:38:04;;;;;;;16.67;15.57;;;;;;;-141.02;100.00;100714.34;5134069;27;20666;-57
2023/06/28 06:40:31;;;;;;;17.20;16.00;;;;;;;-141.02;100.00;100214.53;5133896;27;20684;-57
2023/06/28 06:42:58;;;;;;;17.65;16.35;;;;;;;-141.02;100.00;98465.78;5133902;27;20258;-71
2023/06/28 06:45:25;;;;;;;17.95;16.55;;;;;;;-141.02;100.00;98216.03;5134058;27;20192;-61
2023/06/28 06:47:52;;;;;;;17.73;16.35;;;;;;;-141.02;100.00;97966.31;5133866;27;20205;-57
2023/06/28 06:50:20;;;;;;;17.67;16.27;;;;;;;-141.02;100.00;98216.03;5134159;27;20279;-72
2023/06/28 06:52:47;;;;;;;17.85;16.45;;;;;;;-141.02;100.00;97966.31;5133766;27;20192;-57
2023/06/28 06:55:14;;;;;;;17.35;16.05;;;;;;;-141.02;100.00;98465.78;5133962;27;20204;-57
2023/06/28 06:57:41;;;;;;;17.55;16.25;;;;;;;-141.02;100.00;98965.34;5133873;27;20192;-57
2023/06/28 07:00:10;;;;;;;17.95;16.55;;;;;;;-141.02;100.00;97716.59;5133956;27;20219;-57
2023/06/28 07:02:37;;;;;;;17.80;16.40;;;;;;;-141.02;100.00;98216.03;5133476;27;20311;-57
2023/06/28 07:05:04;;;;;;;18.27;16.77;;;;;;;-141.02;100.00;97466.91;5133908;27;20220;-62
2023/06/28 07:07:32;;;;;;;18.02;16.52;;;;;;;-141.02;100.00;97466.91;5133470;27;20232;-57
2023/06/28 07:09:59;;;;;;;18.20;16.70;;;;;;;-141.02;100.00;97466.91;5133343;27;20726;-64
2023/06/28 07:12:26;;;;;;;18.80;17.30;;;;;;;-141.02;100.00;97466.91;5133772;27;20264;-57
2023/06/28 07:14:53;;;;;;;18.70;17.10;;;;;;;-141.02;100.00;96468.31;5133581;27;20196;-57
2023/06/28 07:17:20;;;;;;;18.63;17.05;;;;;;;-141.02;100.00;95969.13;5133586;27;20247;-57
2023/06/28 07:19:47;;;;;;;19.15;17.45;;;;;;;-141.02;100.00;95470.00;5133587;27;20552;-57
2023/06/28 07:22:14;;;;;;;19.70;17.90;;;;;;;-141.02;100.00;94970.94;5133236;27;20230;-59
2023/06/28 07:24:42;;;;;;;19.73;17.92;;;;;;;-141.02;100.00;94970.94;5133278;27;20597;-57
2023/06/28 07:27:09;;;;;;;19.98;18.17;;;;;;;-141.02;100.00;94721.44;5133075;27;20673;-57
2023/06/28 07:29:36;;;;;;;19.92;18.13;;;;;;;-141.02;100.00;94721.44;5133120;27;20196;-58
2023/06/28 07:32:04;;;;;;;20.48;18.55;;;;;;;-141.02;100.00;94222.50;5133732;27;20196;-57
2023/06/28 07:34:31;;;;;;;20.13;18.33;;;;;;;-141.02;100.00;93973.06;5133080;27;20283;-58
2023/06/28 07:36:58;;;;;;;20.08;18.17;;;;;;;-141.02;100.00;94222.50;5133375;27;20197;-61
2023/06/28 07:39:25;;;;;;;20.08;18.23;;;;;;;-141.02;100.00;93474.22;5132453;27;20201;-58
2023/06/28 07:41:53;;;;;;;20.25;18.35;;;;;;;-141.02;100.00;92726.13;5133432;27;20236;-60
2023/06/28 07:44:20;;;;;;;20.13;18.23;;;;;;;-141.02;100.00;92726.13;5133070;27;20262;-57
2023/06/28 07:46:47;;;;;;;20.15;18.25;;;;;;;-141.02;100.00;92975.47;5132823;28;20318;-58
2023/06/28 07:49:14;;;;;;;20.60;18.63;;;;;;;-141.02;100.00;91978.16;5133217;28;20227;-66
2023/06/28 07:51:41;;;;;;;21.77;19.88;;;;;;;-141.02;100.00;92227.47;5133132;28;20251;-61
2023/06/28 07:54:09;;;;;;;20.88;18.98;;;;;;;-141.02;100.00;92726.13;5132772;28;20249;-66
2023/06/28 07:56:36;;;;;;;20.35;18.55;;;;;;;-141.02;100.00;92975.47;5133022;28;20192;-57
2023/06/28 07:59:05;;;;;;;20.25;18.45;;;;;;;-141.02;100.00;93474.22;5132830;28;20249;-57
2023/06/28 08:01:33;;;;;;;20.63;18.83;;;;;;;-141.02;100.00;92726.13;5132654;28;20576;-57
2023/06/28 08:04:00;;;;;;;21.70;19.70;;;;;;;-141.02;99.96;93474.22;5132910;27;20228;-57
2023/06/28 08:06:28;;;;;;;20.90;19.00;;;;;;;-141.02;95.48;92476.78;5132739;28;20192;-57
2023/06/28 08:08:55;;;;;;;23.02;20.77;;;;;;;-141.02;93.96;91728.88;5132787;28;20231;-61
2023/06/28 08:11:22;;;;;;;24.88;22.58;;;;;;;-141.02;92.26;91728.88;5133000;28;20296;-57
2023/06/28 08:13:50;;;;;;;22.58;20.48;;;;;;;-141.02;95.70;92726.13;5132561;28;20192;-57
2023/06/28 08:16:19;;;;;;;20.98;18.98;;;;;;;-141.02;93.89;91230.38;5132554;27;20718;-63
2023/06/28 08:18:46;;;;;;;20.70;18.80;;;;;;;-141.02;95.10;91479.63;5132901;28;20283;-57
2023/06/28 08:21:14;;;;;;;23.05;20.85;;;;;;;-141.02;93.91;90981.13;5132774;28;20199;-66
2023/06/28 08:23:41;;;;;;;23.48;21.27;;;;;;;-141.02;91.11;90981.13;5132509;28;20259;-57
2023/06/28 08:26:08;;;;;;;22.30;20.10;;;;;;;-141.02;90.25;91978.16;5132824;28;20545;-57
2023/06/28 08:28:35;;;;;;;22.80;20.60;;;;;;;-141.02;90.53;91728.88;5133150;28;20200;-64
2023/06/28 08:31:02;;;;;;;23.30;21.10;;;;;;;-141.02;92.48;90482.72;5132470;28;20596;-58
2023/06/28 08:33:30;;;;;;;23.38;21.17;;;;;;;-141.02;89.30;90731.94;5132353;28;20279;-57
2023/06/28 08:35:57;;;;;;;22.83;20.65;;;;;;;-141.02;88.25;90482.72;5132814;27;20192;-59
2023/06/28 08:38:24;;;;;;;23.25;21.05;;;;;;;-141.02;88.03;90731.94;5132575;28;20196;-57
2023/06/28 08:40:52;;;;;;;21.08;19.08;;;;;;;-141.02;91.25;91479.63;5132400;28;20193;-57
2023/06/28 08:43:21;;;;;;;21.48;19.38;;;;;;;-141.02;91.49;91479.63;5132111;27;20233;-57
2023/06/28 08:45:48;;;;;;;22.00;19.80;;;;;;;-141.02;86.74;90233.56;5132655;27;20658;-58
2023/06/28 08:48:15;;;;;;;21.60;19.50;;;;;;;-141.02;88.29;90981.13;5132597;27;20202;-62
2023/06/28 08:50:45;;;;;;;21.35;19.25;;;;;;;-141.02;86.00;91479.63;5134287;27;20283;-57
2023/06/28 08:53:18;;;;;;;22.00;19.80;;;;;;;-141.02;86.93;90482.72;5136433;27;20253;-57
2023/06/28 08:55:46;;;;;;;22.20;20.00;;;;;;;-141.02;82.69;89735.28;5136301;27;20272;-57
2023/06/28 08:58:14;;;;;;;22.15;19.95;;;;;;;-141.02;85.80;87991.81;5135984;27;20253;-59
2023/06/28 09:00:44;;;;;;;21.63;19.52;;;;;;;-141.02;86.57;88240.81;5136151;27;20283;-58
2023/06/28 09:03:11;;;;;;;21.85;19.75;;;;;;;-141.02;87.31;87991.81;5135758;27;20224;-57
2023/06/28 09:05:40;;;;;;;21.67;19.58;;;;;;;-141.02;88.73;87742.81;5135761;27;20241;-58
2023/06/28 09:08:09;;;;;;;20.73;18.73;;;;;;;-141.02;87.91;87991.81;5136122;27;20227;-60
2023/06/28 09:10:37;;;;;;;20.75;18.77;;;;;;;-141.02;86.60;88489.84;5135754;27;20283;-57
2023/06/28 09:13:05;;;;;;;22.13;20.13;;;;;;;-141.02;87.73;89486.16;5135981;27;20279;-58
2023/06/28 09:15:35;;;;;;;21.80;19.63;;;;;;;-141.02;83.64;88738.88;5135719;27;20745;-59
2023/06/28 09:18:02;;;;;;;22.20;20.00;;;;;;;-141.02;81.61;89237.03;5135888;27;20202;-57
2023/06/28 09:20:29;;;;;;;22.38;20.15;;;;;;;-141.02;79.35;90482.72;5135567;27;20224;-58
2023/06/28 09:22:57;;;;;;;23.02;20.73;;;;;;;-141.02;76.13;89486.16;5135369;27;20200;-58
2023/06/28 09:25:27;;;;;;;23.15;20.83;;;;;;;-141.02;76.05;88987.97;5135503;27;20723;-58
2023/06/28 09:27:54;;;;;;;23.42;21.02;;;;;;;-141.02;76.02;88489.84;5135491;27;20647;-65
2023/06/28 09:30:21;;;;;;;23.58;21.17;;;;;;;-141.02;74.68;87742.81;5135397;27;20188;-62
2023/06/28 09:32:51;;;;;;;23.17;20.77;;;;;;;-141.02;77.40;87493.84;5135646;27;20200;-59
2023/06/28 09:35:18;;;;;;;23.90;21.40;;;;;;;-141.02;75.43;87991.81;5135264;27;20192;-58
2023/06/28 09:37:50;;;;;;;23.38;20.98;;;;;;;-141.02;78.68;88987.97;5135218;27;20283;-57
2023/06/28 09:40:18;;;;;;;23.95;21.55;;;;;;;-141.02;75.76;88738.88;5135172;27;20328;-58
2023/06/28 09:42:47;;;;;;;23.80;21.40;;;;;;;-141.02;76.43;86000.34;5133967;27;20319;-62
2023/06/28 09:45:26;;;;;;;23.17;20.88;;;;;;;-141.02;79.18;87244.88;5135066;27;20725;-59
2023/06/28 09:47:58;;;;;;;23.90;21.45;;;;;;;-141.02;75.43;86747.00;5135034;27;20193;-58
2023/06/28 09:50:36;;;;;;;24.25;21.75;;;;;;;-141.02;73.48;85502.66;5135061;27;20647;-58
2023/06/28 09:53:03;;;;;;;24.20;21.80;;;;;;;-141.02;74.92;86249.22;5134950;27;20245;-61
2023/06/28 09:55:30;;;;;;;23.63;21.23;;;;;;;-141.02;76.74;87244.88;5135358;27;20198;-57
2023/06/28 09:58:00;;;;;;;23.63;21.23;;;;;;;-141.02;76.78;87244.88;5134826;27;20242;-58
2023/06/28 10:00:30;;;;;;;24.48;21.92;;;;;;;-141.02;72.75;86498.09;5135033;27;20564;-57
2023/06/28 10:02:59;;;;;;;24.17;21.67;;;;;;;-141.02;73.12;87244.88;5134981;27;20681;-57
2023/06/28 10:05:28;;;;;;;24.02;21.55;;;;;;;-141.02;74.62;87991.81;5134752;27;20704;-57
2023/06/28 10:07:55;;;;;;;23.58;21.17;;;;;;;-141.02;74.94;88738.88;5134656;27;20199;-58
2023/06/28 10:10:22;;;;;;;23.98;21.55;;;;;;;-141.02;71.17;87991.81;5134936;27;20284;-58
2023/06/28 10:12:53;;;;;;;24.90;22.30;;;;;;;-141.02;72.95;87991.81;5134505;27;20704;-58
2023/06/28 10:15:24;;;;;;;24.02;21.52;;;;;;;-141.02;76.95;87991.81;5134554;27;20633;-58
2023/06/28 10:17:52;;;;;;;24.52;22.02;;;;;;;-141.02;72.55;86995.94;5134748;27;20189;-61
2023/06/28 10:20:19;;;;;;;24.67;22.17;;;;;;;-141.02;72.08;86249.22;5134932;27;20192;-58
2023/06/28 10:22:46;;;;;;;24.83;22.23;;;;;;;-141.02;72.64;86498.09;5134321;27;20644;-57
2023/06/28 10:25:14;;;;;;;24.83;22.23;;;;;;;-141.02;73.66;86498.09;5134482;27;20224;-58
2023/06/28 10:27:42;;;;;;;24.83;22.23;;;;;;;-141.02;70.28;86995.94;5134243;27;20704;-59
2023/06/28 10:30:10;;;;;;;25.90;23.25;;;;;;;-141.02;68.68;85751.50;5134764;27;20196;-57
2023/06/28 10:32:39;;;;;;;25.25;22.65;;;;;;;-141.02;71.29;87244.88;5134193;27;20674;-58
2023/06/28 10:35:08;;;;;;;25.52;22.92;;;;;;;-141.02;67.42;86000.34;5134445;27;20204;-58
2023/06/28 10:37:35;;;;;;;24.63;22.13;;;;;;;-141.02;73.35;86747.00;5134080;27;20203;-72
2023/06/28 10:40:04;;;;;;;25.10;22.50;;;;;;;-141.02;71.78;86995.94;5134045;27;20665;-59
2023/06/28 10:42:39;;;;;;;25.20;22.60;;;;;;;-141.02;70.93;86995.94;5134012;27;20235;-58
2023/06/28 10:45:07;;;;;;;26.25;23.65;;;;;;;-141.02;69.58;86498.09;5134214;27;20212;-74
2023/06/28 10:47:35;;;;;;;24.75;22.25;;;;;;;-141.02;69.45;87493.84;5134133;27;20192;-57
2023/06/28 10:50:08;;;;;;;24.80;22.20;;;;;;;-141.02;69.25;87493.84;5133821;27;20231;-73
2023/06/28 10:52:36;;;;;;;25.00;22.40;;;;;;;-141.02;67.33;86498.09;5134067;27;20220;-70
2023/06/28 10:55:04;;;;;;;24.98;22.38;;;;;;;-141.02;69.38;86995.94;5133686;27;20606;-73
2023/06/28 10:57:38;;;;;;;25.20;22.58;;;;;;;-141.02;69.66;86747.00;5133966;27;20203;-61
2023/06/28 11:00:09;;;;;;;25.45;22.75;;;;;;;-141.02;71.50;85005.03;5133695;27;20188;-61
2023/06/28 11:03:00;;;;;;;25.15;22.55;;;;;;;-141.02;70.57;84258.75;5133864;27;20189;-57
2023/06/28 11:05:39;;;;;;;25.52;22.83;;;;;;;-141.02;73.84;82766.69;5134082;27;20224;-71
2023/06/28 11:08:11;;;;;;;25.00;22.40;;;;;;;-141.02;74.54;82766.69;5133565;27;20188;-57
2023/06/28 11:10:39;;;;;;;24.55;22.05;;;;;;;-141.02;76.00;84010.03;5133763;27;20219;-58